Miya Maru No.1 — JD3144 — position and weather

sailwx.info

Track history (hours):
 
Tides and Currents Weather Stations Pressure Air Temp Water Temp Dewpoint Dewpoint Depression Visibility Wind Speed Wind Dir Waves Ship Positions

Miya Maru No.1

Last reported at 2018-Jun-10 01:44 UTC. Time now 2018-Jun-24 20:14 UTC.
Position N 34°25' E 134°21'.
Warning: this ship's position is 14 days out of date.

Length 104 m; draft 4.4 m.

Type: Tanker. MMSI: 431002261.

Date/timePositionNaut miles runAvg speedWind from/ knotsBaromVisibWave heightAir tempDewpointWater temp
2018-Jun-10 01:44N 34°25' E 134°21'413.9
2018-Jun-10 01:28N 34°26' E 134°25'714.1
2018-Jun-10 01:00N 34°29' E 134°33'714.2
2018-Jun-10 00:30N 34°31' E 134°41'714.2
2018-Jun-10 00:00N 34°34' E 134°49'714.0
2018-Jun-09 23:30N 34°37' E 134°57'613.0
2018-Jun-09 23:00N 34°36' E 135°04'714.3
2018-Jun-09 22:30N 34°34' E 135°13'714.2
2018-Jun-09 22:00N 34°34' E 135°21'4 7.1
2018-Jun-09 21:30N 34°33' E 135°26'0 0.0
2018-Jun-09 21:00N 34°33' E 135°26'0 0.0
2018-Jun-09 20:30N 34°33' E 135°26'0 0.0
2018-Jun-09 20:00N 34°33' E 135°26'0 0.0
2018-Jun-09 19:30N 34°33' E 135°26'0 0.0
2018-Jun-09 19:00N 34°33' E 135°26'0 0.0
2018-Jun-09 18:30N 34°33' E 135°26'0 0.0
2018-Jun-09 17:59N 34°33' E 135°26'0 0.0
2018-Jun-09 17:30N 34°33' E 135°26'0 0.0
2018-Jun-09 17:00N 34°33' E 135°26'0 0.0
2018-Jun-09 16:30N 34°33' E 135°26'0 0.0
2018-Jun-09 16:00N 34°33' E 135°26'0 0.0
2018-Jun-09 15:00N 34°33' E 135°26'0 0.0
2018-Jun-09 10:28N 34°33' E 135°26'0 0.0
2018-Jun-09 09:43N 34°33' E 135°26'0 0.0
2018-Jun-09 09:27N 34°33' E 135°26'0 0.0
2018-Jun-09 09:00N 34°33' E 135°26'0 0.1
2018-Jun-09 08:30N 34°33' E 135°26'0 0.9
2018-Jun-09 07:59N 34°33' E 135°25'2 3.5
2018-Jun-09 07:28N 34°33' E 135°23'3 6.7
2018-Jun-09 07:00N 34°32' E 135°19'0 0.2
2018-Jun-09 06:29N 34°32' E 135°20'0 0.0
2018-Jun-09 05:59N 34°32' E 135°20'0 0.0
2018-Jun-09 05:29N 34°32' E 135°20'0 0.0
2018-Jun-09 04:59N 34°32' E 135°20'0 0.1
2018-Jun-09 04:29N 34°32' E 135°19'0 0.0
2018-Jun-09 03:59N 34°32' E 135°19'0 0.0
2018-Jun-09 03:17N 34°32' E 135°19'0 0.0
2018-Jun-09 02:59N 34°32' E 135°19'0 0.0
2018-Jun-09 02:29N 34°32' E 135°19'0 0.0
2018-Jun-09 01:59N 34°32' E 135°19'0 0.0
2018-Jun-09 01:29N 34°32' E 135°19'0 0.0
2018-Jun-09 00:53N 34°32' E 135°19'0 0.0
2018-Jun-09 00:29N 34°32' E 135°19'0 0.0
2018-Jun-08 23:53N 34°32' E 135°19'0 0.0
2018-Jun-08 23:29N 34°32' E 135°19'0 0.0
2018-Jun-08 22:53N 34°32' E 135°19'0 0.0
2018-Jun-08 22:29N 34°32' E 135°19'0 0.0
2018-Jun-08 21:47N 34°32' E 135°19'0 0.0
2018-Jun-08 21:29N 34°32' E 135°19'0 0.0
2018-Jun-08 20:47N 34°32' E 135°19'0 0.0
2018-Jun-08 20:29N 34°32' E 135°19'0 0.0
2018-Jun-08 19:59N 34°32' E 135°19'0 0.0
2018-Jun-08 19:29N 34°32' E 135°19'0 0.1
2018-Jun-08 18:59N 34°32' E 135°20'0 0.0
2018-Jun-08 18:29N 34°32' E 135°20'0 0.0
2018-Jun-08 17:59N 34°32' E 135°20'0 0.0
2018-Jun-08 17:23N 34°32' E 135°20'0 0.0
2018-Jun-08 16:59N 34°32' E 135°20'0 0.0
2018-Jun-08 16:26N 34°32' E 135°20'0 0.0
2018-Jun-08 15:59N 34°32' E 135°20'0 0.0
2018-Jun-08 15:23N 34°32' E 135°20'0 0.0
2018-Jun-08 14:59N 34°32' E 135°20'0 0.0
2018-Jun-08 14:26N 34°32' E 135°20'0 0.0
2018-Jun-08 13:59N 34°32' E 135°20'0 0.1
2018-Jun-08 13:29N 34°32' E 135°20'0 0.1
2018-Jun-08 12:59N 34°32' E 135°20'3 5.2
2018-Jun-08 12:30N 34°31' E 135°17'713.5
2018-Jun-08 12:00N 34°27' E 135°11'713.6
2018-Jun-08 11:30N 34°22' E 135°05'713.2
2018-Jun-08 11:01N 34°17' E 134°59'713.1
2018-Jun-08 10:30N 34°12' E 135°03'510.8
2018-Jun-08 10:00N 34°07' E 135°07'0 0.0
2018-Jun-08 00:17N 34°07' E 135°07'0 0.6
2018-Jun-08 00:00N 34°07' E 135°07'1 1.6
2018-Jun-07 23:30N 34°08' E 135°07'4 8.1
2018-Jun-07 23:00N 34°12' E 135°05'3 5.9
2018-Jun-07 22:30N 34°13' E 135°09'0 0.0
2018-Jun-07 22:00N 34°13' E 135°09'0 0.0
2018-Jun-07 18:16N 34°13' E 135°09'0 0.0
2018-Jun-07 01:58N 34°13' E 135°09'0 0.0
2018-Jun-07 00:46N 34°13' E 135°09'0 0.0
2018-Jun-07 00:16N 34°13' E 135°09'0 0.1
2018-Jun-06 23:52N 34°13' E 135°09'1 3.9
2018-Jun-06 23:31N 34°13' E 135°07'1 1.9
2018-Jun-06 23:00N 34°12' E 135°06'0 0.0
2018-Jun-06 22:29N 34°12' E 135°06'0 0.0
2018-Jun-06 21:59N 34°12' E 135°06'0 0.0
2018-Jun-06 21:29N 34°12' E 135°06'0 0.0
2018-Jun-06 20:59N 34°12' E 135°06'0 0.0
2018-Jun-06 20:29N 34°12' E 135°06'0 0.0
2018-Jun-06 19:59N 34°12' E 135°06'0 0.1
2018-Jun-06 19:29N 34°12' E 135°06'0 0.1
2018-Jun-06 18:59N 34°12' E 135°06'0 0.1
2018-Jun-06 18:29N 34°12' E 135°06'0 0.1
2018-Jun-06 17:59N 34°12' E 135°06'0 0.0
2018-Jun-06 17:29N 34°12' E 135°06'0 0.0
2018-Jun-06 16:59N 34°12' E 135°06'0 0.0
2018-Jun-06 16:29N 34°12' E 135°06'0 0.0
2018-Jun-06 15:59N 34°12' E 135°06'0 0.1
2018-Jun-06 15:29N 34°12' E 135°06'0 0.0
2018-Jun-06 14:56N 34°12' E 135°06'0 0.0
2018-Jun-06 14:29N 34°12' E 135°06'0 0.0
2018-Jun-06 13:59N 34°12' E 135°06'0 0.0
2018-Jun-06 13:29N 34°12' E 135°06'0 0.0
2018-Jun-06 12:59N 34°12' E 135°06'0 0.0
2018-Jun-06 12:29N 34°12' E 135°06'0 0.0
2018-Jun-06 11:59N 34°12' E 135°06'3 6.2
2018-Jun-06 11:30N 34°10' E 135°05'713.9
2018-Jun-06 11:00N 34°03' E 135°02'713.6
2018-Jun-06 10:30N 33°58' E 134°57'1813.9
2018-Jun-06 09:12N 33°43' E 134°45'  
Track history (hours):
 
Tides and Currents Weather Stations Pressure Air Temp Water Temp Dewpoint Dewpoint Depression Visibility Wind Speed Wind Dir Waves Ship Positions

Miya Maru No.1

Last reported at 2018-Jun-10 01:44 UTC. Time now 2018-Jun-24 20:14 UTC.
Position N 34°25' E 134°21'.
Warning: this ship's position is 14 days out of date.

Length 104 m; draft 4.4 m.

Type: Tanker. MMSI: 431002261.

Date/timePositionNaut miles runAvg speedWind from/ knotsBaromVisibWave heightAir tempDewpointWater temp
2018-Jun-10 01:44N 34°25' E 134°21'413.9
2018-Jun-10 01:28N 34°26' E 134°25'714.1
2018-Jun-10 01:00N 34°29' E 134°33'714.2
2018-Jun-10 00:30N 34°31' E 134°41'714.2
2018-Jun-10 00:00N 34°34' E 134°49'714.0
2018-Jun-09 23:30N 34°37' E 134°57'613.0
2018-Jun-09 23:00N 34°36' E 135°04'714.3
2018-Jun-09 22:30N 34°34' E 135°13'714.2
2018-Jun-09 22:00N 34°34' E 135°21'4 7.1
2018-Jun-09 21:30N 34°33' E 135°26'0 0.0
2018-Jun-09 21:00N 34°33' E 135°26'0 0.0
2018-Jun-09 20:30N 34°33' E 135°26'0 0.0
2018-Jun-09 20:00N 34°33' E 135°26'0 0.0
2018-Jun-09 19:30N 34°33' E 135°26'0 0.0
2018-Jun-09 19:00N 34°33' E 135°26'0 0.0
2018-Jun-09 18:30N 34°33' E 135°26'0 0.0
2018-Jun-09 17:59N 34°33' E 135°26'0 0.0
2018-Jun-09 17:30N 34°33' E 135°26'0 0.0
2018-Jun-09 17:00N 34°33' E 135°26'0 0.0
2018-Jun-09 16:30N 34°33' E 135°26'0 0.0
2018-Jun-09 16:00N 34°33' E 135°26'0 0.0
2018-Jun-09 15:00N 34°33' E 135°26'0 0.0
2018-Jun-09 10:28N 34°33' E 135°26'0 0.0
2018-Jun-09 09:43N 34°33' E 135°26'0 0.0
2018-Jun-09 09:27N 34°33' E 135°26'0 0.0
2018-Jun-09 09:00N 34°33' E 135°26'0 0.1
2018-Jun-09 08:30N 34°33' E 135°26'0 0.9
2018-Jun-09 07:59N 34°33' E 135°25'2 3.5
2018-Jun-09 07:28N 34°33' E 135°23'3 6.7
2018-Jun-09 07:00N 34°32' E 135°19'0 0.2
2018-Jun-09 06:29N 34°32' E 135°20'0 0.0
2018-Jun-09 05:59N 34°32' E 135°20'0 0.0
2018-Jun-09 05:29N 34°32' E 135°20'0 0.0
2018-Jun-09 04:59N 34°32' E 135°20'0 0.1
2018-Jun-09 04:29N 34°32' E 135°19'0 0.0
2018-Jun-09 03:59N 34°32' E 135°19'0 0.0
2018-Jun-09 03:17N 34°32' E 135°19'0 0.0
2018-Jun-09 02:59N 34°32' E 135°19'0 0.0
2018-Jun-09 02:29N 34°32' E 135°19'0 0.0
2018-Jun-09 01:59N 34°32' E 135°19'0 0.0
2018-Jun-09 01:29N 34°32' E 135°19'0 0.0
2018-Jun-09 00:53N 34°32' E 135°19'0 0.0
2018-Jun-09 00:29N 34°32' E 135°19'0 0.0
2018-Jun-08 23:53N 34°32' E 135°19'0 0.0
2018-Jun-08 23:29N 34°32' E 135°19'0 0.0
2018-Jun-08 22:53N 34°32' E 135°19'0 0.0
2018-Jun-08 22:29N 34°32' E 135°19'0 0.0
2018-Jun-08 21:47N 34°32' E 135°19'0 0.0
2018-Jun-08 21:29N 34°32' E 135°19'0 0.0
2018-Jun-08 20:47N 34°32' E 135°19'0 0.0
2018-Jun-08 20:29N 34°32' E 135°19'0 0.0
2018-Jun-08 19:59N 34°32' E 135°19'0 0.0
2018-Jun-08 19:29N 34°32' E 135°19'0 0.1
2018-Jun-08 18:59N 34°32' E 135°20'0 0.0
2018-Jun-08 18:29N 34°32' E 135°20'0 0.0
2018-Jun-08 17:59N 34°32' E 135°20'0 0.0
2018-Jun-08 17:23N 34°32' E 135°20'0 0.0
2018-Jun-08 16:59N 34°32' E 135°20'0 0.0
2018-Jun-08 16:26N 34°32' E 135°20'0 0.0
2018-Jun-08 15:59N 34°32' E 135°20'0 0.0
2018-Jun-08 15:23N 34°32' E 135°20'0 0.0
2018-Jun-08 14:59N 34°32' E 135°20'0 0.0
2018-Jun-08 14:26N 34°32' E 135°20'0 0.0
2018-Jun-08 13:59N 34°32' E 135°20'0 0.1
2018-Jun-08 13:29N 34°32' E 135°20'0 0.1
2018-Jun-08 12:59N 34°32' E 135°20'3 5.2
2018-Jun-08 12:30N 34°31' E 135°17'713.5
2018-Jun-08 12:00N 34°27' E 135°11'713.6
2018-Jun-08 11:30N 34°22' E 135°05'713.2
2018-Jun-08 11:01N 34°17' E 134°59'713.1
2018-Jun-08 10:30N 34°12' E 135°03'510.8
2018-Jun-08 10:00N 34°07' E 135°07'0 0.0
2018-Jun-08 00:17N 34°07' E 135°07'0 0.6
2018-Jun-08 00:00N 34°07' E 135°07'1 1.6
2018-Jun-07 23:30N 34°08' E 135°07'4 8.1
2018-Jun-07 23:00N 34°12' E 135°05'3 5.9
2018-Jun-07 22:30N 34°13' E 135°09'0 0.0
2018-Jun-07 22:00N 34°13' E 135°09'0 0.0
2018-Jun-07 18:16N 34°13' E 135°09'0 0.0
2018-Jun-07 01:58N 34°13' E 135°09'0 0.0
2018-Jun-07 00:46N 34°13' E 135°09'0 0.0
2018-Jun-07 00:16N 34°13' E 135°09'0 0.1
2018-Jun-06 23:52N 34°13' E 135°09'1 3.9
2018-Jun-06 23:31N 34°13' E 135°07'1 1.9
2018-Jun-06 23:00N 34°12' E 135°06'0 0.0
2018-Jun-06 22:29N 34°12' E 135°06'0 0.0
2018-Jun-06 21:59N 34°12' E 135°06'0 0.0
2018-Jun-06 21:29N 34°12' E 135°06'0 0.0
2018-Jun-06 20:59N 34°12' E 135°06'0 0.0
2018-Jun-06 20:29N 34°12' E 135°06'0 0.0
2018-Jun-06 19:59N 34°12' E 135°06'0 0.1
2018-Jun-06 19:29N 34°12' E 135°06'0 0.1
2018-Jun-06 18:59N 34°12' E 135°06'0 0.1
2018-Jun-06 18:29N 34°12' E 135°06'0 0.1
2018-Jun-06 17:59N 34°12' E 135°06'0 0.0
2018-Jun-06 17:29N 34°12' E 135°06'0 0.0
2018-Jun-06 16:59N 34°12' E 135°06'0 0.0
2018-Jun-06 16:29N 34°12' E 135°06'0 0.0
2018-Jun-06 15:59N 34°12' E 135°06'0 0.1
2018-Jun-06 15:29N 34°12' E 135°06'0 0.0
2018-Jun-06 14:56N 34°12' E 135°06'0 0.0
2018-Jun-06 14:29N 34°12' E 135°06'0 0.0
2018-Jun-06 13:59N 34°12' E 135°06'0 0.0
2018-Jun-06 13:29N 34°12' E 135°06'0 0.0
2018-Jun-06 12:59N 34°12' E 135°06'0 0.0
2018-Jun-06 12:29N 34°12' E 135°06'0 0.0
2018-Jun-06 11:59N 34°12' E 135°06'3 6.2
2018-Jun-06 11:30N 34°10' E 135°05'713.9
2018-Jun-06 11:00N 34°03' E 135°02'713.6
2018-Jun-06 10:30N 33°58' E 134°57'1813.9
2018-Jun-06 09:12N 33°43' E 134°45'  

Dump ship's entire track history